sensor_id;sensor_type;location;lat;lon;timestamp;P1;durP1;ratioP1;P2;durP2;ratioP2
29378;SDS011;16362;47.202;15.258;2023-07-28T00:00:10;2.70;;;2.50;;
29378;SDS011;16362;47.202;15.258;2023-07-28T00:02:38;6.47;;;2.20;;
29378;SDS011;16362;47.202;15.258;2023-07-28T00:05:14;3.38;;;3.17;;
29378;SDS011;16362;47.202;15.258;2023-07-28T00:07:47;4.35;;;2.25;;
29378;SDS011;16362;47.202;15.258;2023-07-28T00:10:13;2.70;;;2.60;;
29378;SDS011;16362;47.202;15.258;2023-07-28T00:12:41;2.40;;;2.30;;
29378;SDS011;16362;47.202;15.258;2023-07-28T00:15:08;6.07;;;2.20;;
29378;SDS011;16362;47.202;15.258;2023-07-28T00:17:35;2.75;;;2.50;;
29378;SDS011;16362;47.202;15.258;2023-07-28T00:20:02;2.53;;;2.33;;
29378;SDS011;16362;47.202;15.258;2023-07-28T00:22:34;2.42;;;2.33;;
29378;SDS011;16362;47.202;15.258;2023-07-28T00:25:07;2.60;;;2.40;;
29378;SDS011;16362;47.202;15.258;2023-07-28T00:27:36;2.75;;;2.55;;
29378;SDS011;16362;47.202;15.258;2023-07-28T00:30:03;3.80;;;2.75;;
29378;SDS011;16362;47.202;15.258;2023-07-28T00:32:31;4.13;;;2.50;;
29378;SDS011;16362;47.202;15.258;2023-07-28T00:34:59;2.65;;;2.45;;
29378;SDS011;16362;47.202;15.258;2023-07-28T00:37:33;3.30;;;2.22;;
29378;SDS011;16362;47.202;15.258;2023-07-28T00:40:00;8.88;;;2.30;;
29378;SDS011;16362;47.202;15.258;2023-07-28T00:42:30;2.33;;;2.22;;
29378;SDS011;16362;47.202;15.258;2023-07-28T00:44:56;3.35;;;2.40;;
29378;SDS011;16362;47.202;15.258;2023-07-28T00:47:25;2.30;;;2.20;;
29378;SDS011;16362;47.202;15.258;2023-07-28T00:49:54;4.15;;;2.58;;
29378;SDS011;16362;47.202;15.258;2023-07-28T00:52:22;2.47;;;2.38;;
29378;SDS011;16362;47.202;15.258;2023-07-28T00:54:56;3.70;;;2.55;;
29378;SDS011;16362;47.202;15.258;2023-07-28T00:57:25;3.70;;;2.38;;
29378;SDS011;16362;47.202;15.258;2023-07-28T00:59:55;5.10;;;2.60;;
29378;SDS011;16362;47.202;15.258;2023-07-28T01:02:22;1.85;;;1.85;;
29378;SDS011;16362;47.202;15.258;2023-07-28T01:04:49;2.80;;;2.33;;
29378;SDS011;16362;47.202;15.258;2023-07-28T01:07:22;3.35;;;2.35;;
29378;SDS011;16362;47.202;15.258;2023-07-28T01:10:03;6.65;;;2.55;;
29378;SDS011;16362;47.202;15.258;2023-07-28T01:12:34;4.80;;;2.47;;
29378;SDS011;16362;47.202;15.258;2023-07-28T01:15:01;4.43;;;2.60;;
29378;SDS011;16362;47.202;15.258;2023-07-28T01:17:30;2.45;;;2.35;;
29378;SDS011;16362;47.202;15.258;2023-07-28T01:19:59;3.67;;;2.20;;
29378;SDS011;16362;47.202;15.258;2023-07-28T01:25:47;2.67;;;2.58;;
29378;SDS011;16362;47.202;15.258;2023-07-28T01:28:23;2.28;;;2.17;;
29378;SDS011;16362;47.202;15.258;2023-07-28T01:31:02;2.78;;;2.33;;
29378;SDS011;16362;47.202;15.258;2023-07-28T01:33:33;2.60;;;2.50;;
29378;SDS011;16362;47.202;15.258;2023-07-28T01:36:04;7.57;;;2.72;;
29378;SDS011;16362;47.202;15.258;2023-07-28T01:38:37;3.53;;;3.30;;
29378;SDS011;16362;47.202;15.258;2023-07-28T01:41:04;2.08;;;1.98;;
29378;SDS011;16362;47.202;15.258;2023-07-28T01:43:37;5.38;;;2.47;;
29378;SDS011;16362;47.202;15.258;2023-07-28T01:46:17;2.35;;;2.15;;
29378;SDS011;16362;47.202;15.258;2023-07-28T01:48:49;2.67;;;2.58;;
29378;SDS011;16362;47.202;15.258;2023-07-28T01:51:16;3.30;;;2.13;;
29378;SDS011;16362;47.202;15.258;2023-07-28T01:53:44;4.15;;;2.55;;
29378;SDS011;16362;47.202;15.258;2023-07-28T01:56:13;2.40;;;2.20;;
29378;SDS011;16362;47.202;15.258;2023-07-28T01:58:42;2.25;;;2.15;;
29378;SDS011;16362;47.202;15.258;2023-07-28T02:01:14;2.40;;;2.20;;
29378;SDS011;16362;47.202;15.258;2023-07-28T02:03:46;2.38;;;2.10;;
29378;SDS011;16362;47.202;15.258;2023-07-28T02:06:13;2.30;;;2.20;;
29378;SDS011;16362;47.202;15.258;2023-07-28T02:08:40;2.47;;;2.38;;
29378;SDS011;16362;47.202;15.258;2023-07-28T02:11:07;4.57;;;2.95;;
29378;SDS011;16362;47.202;15.258;2023-07-28T02:13:34;6.95;;;2.15;;
29378;SDS011;16362;47.202;15.258;2023-07-28T02:16:05;3.00;;;2.15;;
29378;SDS011;16362;47.202;15.258;2023-07-28T02:18:35;2.47;;;2.38;;
29378;SDS011;16362;47.202;15.258;2023-07-28T02:21:11;2.92;;;2.47;;
29378;SDS011;16362;47.202;15.258;2023-07-28T02:23:41;2.13;;;2.03;;
29378;SDS011;16362;47.202;15.258;2023-07-28T02:26:07;5.38;;;2.20;;
29378;SDS011;16362;47.202;15.258;2023-07-28T02:28:37;3.00;;;2.20;;
29378;SDS011;16362;47.202;15.258;2023-07-28T02:31:06;2.47;;;2.30;;
29378;SDS011;16362;47.202;15.258;2023-07-28T02:33:34;7.10;;;2.50;;
29378;SDS011;16362;47.202;15.258;2023-07-28T02:36:05;2.85;;;2.17;;
29378;SDS011;16362;47.202;15.258;2023-07-28T02:38:36;7.78;;;2.33;;
29378;SDS011;16362;47.202;15.258;2023-07-28T02:41:05;2.45;;;2.35;;
29378;SDS011;16362;47.202;15.258;2023-07-28T02:43:35;4.05;;;2.40;;
29378;SDS011;16362;47.202;15.258;2023-07-28T02:46:02;2.40;;;2.30;;
29378;SDS011;16362;47.202;15.258;2023-07-28T02:48:30;3.58;;;2.20;;
29378;SDS011;16362;47.202;15.258;2023-07-28T02:50:58;3.53;;;3.28;;
29378;SDS011;16362;47.202;15.258;2023-07-28T02:53:26;2.80;;;2.70;;
29378;SDS011;16362;47.202;15.258;2023-07-28T02:55:53;2.30;;;2.20;;
29378;SDS011;16362;47.202;15.258;2023-07-28T02:58:20;2.50;;;2.40;;
29378;SDS011;16362;47.202;15.258;2023-07-28T03:00:58;2.53;;;2.42;;
29378;SDS011;16362;47.202;15.258;2023-07-28T03:05:55;2.40;;;2.20;;
29378;SDS011;16362;47.202;15.258;2023-07-28T03:08:22;2.60;;;2.40;;
29378;SDS011;16362;47.202;15.258;2023-07-28T03:10:49;2.53;;;2.38;;
29378;SDS011;16362;47.202;15.258;2023-07-28T03:13:18;2.83;;;2.53;;
29378;SDS011;16362;47.202;15.258;2023-07-28T03:15:48;3.00;;;2.80;;
29378;SDS011;16362;47.202;15.258;2023-07-28T03:18:15;4.43;;;2.50;;
29378;SDS011;16362;47.202;15.258;2023-07-28T03:20:45;3.72;;;2.50;;
29378;SDS011;16362;47.202;15.258;2023-07-28T03:23:12;2.38;;;2.28;;
29378;SDS011;16362;47.202;15.258;2023-07-28T03:25:40;4.78;;;2.60;;
29378;SDS011;16362;47.202;15.258;2023-07-28T03:28:13;15.23;;;2.40;;
29378;SDS011;16362;47.202;15.258;2023-07-28T03:30:40;2.53;;;2.33;;
29378;SDS011;16362;47.202;15.258;2023-07-28T03:33:15;4.63;;;2.58;;
29378;SDS011;16362;47.202;15.258;2023-07-28T03:35:42;2.78;;;2.60;;
29378;SDS011;16362;47.202;15.258;2023-07-28T03:38:14;2.53;;;2.42;;
29378;SDS011;16362;47.202;15.258;2023-07-28T03:40:40;3.42;;;2.40;;
29378;SDS011;16362;47.202;15.258;2023-07-28T03:43:14;4.30;;;2.33;;
29378;SDS011;16362;47.202;15.258;2023-07-28T03:45:42;2.15;;;2.05;;
29378;SDS011;16362;47.202;15.258;2023-07-28T03:48:11;2.40;;;2.30;;
29378;SDS011;16362;47.202;15.258;2023-07-28T03:50:43;2.33;;;2.22;;
29378;SDS011;16362;47.202;15.258;2023-07-28T03:53:10;2.30;;;2.20;;
29378;SDS011;16362;47.202;15.258;2023-07-28T03:55:44;2.63;;;2.42;;
29378;SDS011;16362;47.202;15.258;2023-07-28T03:58:15;2.92;;;2.40;;
29378;SDS011;16362;47.202;15.258;2023-07-28T04:00:45;2.53;;;2.42;;
29378;SDS011;16362;47.202;15.258;2023-07-28T04:03:17;2.72;;;2.53;;
29378;SDS011;16362;47.202;15.258;2023-07-28T04:05:45;2.47;;;2.35;;
29378;SDS011;16362;47.202;15.258;2023-07-28T04:08:14;2.40;;;2.30;;
29378;SDS011;16362;47.202;15.258;2023-07-28T04:10:41;2.47;;;2.38;;
29378;SDS011;16362;47.202;15.258;2023-07-28T04:13:09;2.70;;;2.50;;
29378;SDS011;16362;47.202;15.258;2023-07-28T04:15:36;3.42;;;2.50;;
29378;SDS011;16362;47.202;15.258;2023-07-28T04:18:17;6.75;;;2.53;;
29378;SDS011;16362;47.202;15.258;2023-07-28T04:20:47;2.30;;;2.20;;
29378;SDS011;16362;47.202;15.258;2023-07-28T04:23:13;2.70;;;2.60;;
29378;SDS011;16362;47.202;15.258;2023-07-28T04:25:49;2.50;;;2.40;;
29378;SDS011;16362;47.202;15.258;2023-07-28T04:28:21;3.50;;;2.30;;
29378;SDS011;16362;47.202;15.258;2023-07-28T04:30:51;5.75;;;2.33;;
29378;SDS011;16362;47.202;15.258;2023-07-28T04:33:18;2.47;;;2.38;;
29378;SDS011;16362;47.202;15.258;2023-07-28T04:35:46;2.45;;;2.25;;
29378;SDS011;16362;47.202;15.258;2023-07-28T04:38:16;2.85;;;2.65;;
29378;SDS011;16362;47.202;15.258;2023-07-28T04:40:48;2.35;;;2.25;;
29378;SDS011;16362;47.202;15.258;2023-07-28T04:43:16;6.88;;;2.30;;
29378;SDS011;16362;47.202;15.258;2023-07-28T04:45:44;3.72;;;2.45;;
29378;SDS011;16362;47.202;15.258;2023-07-28T04:48:13;2.47;;;2.38;;
29378;SDS011;16362;47.202;15.258;2023-07-28T04:50:41;3.13;;;2.88;;
29378;SDS011;16362;47.202;15.258;2023-07-28T04:53:07;2.20;;;2.10;;
29378;SDS011;16362;47.202;15.258;2023-07-28T04:55:38;2.30;;;2.20;;
29378;SDS011;16362;47.202;15.258;2023-07-28T04:58:07;2.30;;;2.20;;
29378;SDS011;16362;47.202;15.258;2023-07-28T05:00:34;2.10;;;2.00;;
29378;SDS011;16362;47.202;15.258;2023-07-28T05:03:01;2.40;;;2.30;;
29378;SDS011;16362;47.202;15.258;2023-07-28T05:05:34;9.02;;;2.30;;
29378;SDS011;16362;47.202;15.258;2023-07-28T05:08:07;3.72;;;2.25;;
29378;SDS011;16362;47.202;15.258;2023-07-28T05:10:41;2.60;;;2.30;;
29378;SDS011;16362;47.202;15.258;2023-07-28T05:13:11;2.00;;;1.90;;
29378;SDS011;16362;47.202;15.258;2023-07-28T05:15:39;5.75;;;2.60;;
29378;SDS011;16362;47.202;15.258;2023-07-28T05:18:06;2.45;;;2.25;;
29378;SDS011;16362;47.202;15.258;2023-07-28T05:20:33;2.15;;;2.05;;
29378;SDS011;16362;47.202;15.258;2023-07-28T05:23:09;2.45;;;2.35;;
29378;SDS011;16362;47.202;15.258;2023-07-28T05:25:36;2.40;;;2.30;;
29378;SDS011;16362;47.202;15.258;2023-07-28T05:28:09;2.30;;;2.20;;
29378;SDS011;16362;47.202;15.258;2023-07-28T05:30:44;2.42;;;2.33;;
29378;SDS011;16362;47.202;15.258;2023-07-28T05:33:12;2.35;;;2.15;;
29378;SDS011;16362;47.202;15.258;2023-07-28T05:35:41;2.13;;;2.03;;
29378;SDS011;16362;47.202;15.258;2023-07-28T05:38:09;2.03;;;1.92;;
29378;SDS011;16362;47.202;15.258;2023-07-28T05:40:55;2.15;;;2.05;;
29378;SDS011;16362;47.202;15.258;2023-07-28T05:46:34;2.15;;;2.05;;
29378;SDS011;16362;47.202;15.258;2023-07-28T05:49:01;6.63;;;1.75;;
29378;SDS011;16362;47.202;15.258;2023-07-28T05:51:28;2.90;;;2.60;;
29378;SDS011;16362;47.202;15.258;2023-07-28T05:53:56;9.00;;;6.93;;
29378;SDS011;16362;47.202;15.258;2023-07-28T05:56:27;3.28;;;2.40;;
29378;SDS011;16362;47.202;15.258;2023-07-28T05:58:56;3.47;;;2.05;;
29378;SDS011;16362;47.202;15.258;2023-07-28T06:01:34;4.15;;;1.90;;
29378;SDS011;16362;47.202;15.258;2023-07-28T06:04:03;2.65;;;2.53;;
29378;SDS011;16362;47.202;15.258;2023-07-28T06:06:30;2.72;;;2.55;;
29378;SDS011;16362;47.202;15.258;2023-07-28T06:08:58;2.83;;;2.72;;
29378;SDS011;16362;47.202;15.258;2023-07-28T06:11:30;2.67;;;2.22;;
29378;SDS011;16362;47.202;15.258;2023-07-28T06:13:57;2.50;;;2.40;;
29378;SDS011;16362;47.202;15.258;2023-07-28T06:16:29;2.75;;;2.50;;
29378;SDS011;16362;47.202;15.258;2023-07-28T06:19:04;2.45;;;2.22;;
29378;SDS011;16362;47.202;15.258;2023-07-28T06:21:32;2.90;;;2.10;;
29378;SDS011;16362;47.202;15.258;2023-07-28T06:24:01;2.10;;;2.00;;
29378;SDS011;16362;47.202;15.258;2023-07-28T06:26:28;2.00;;;1.90;;
29378;SDS011;16362;47.202;15.258;2023-07-28T06:31:44;2.33;;;2.22;;
29378;SDS011;16362;47.202;15.258;2023-07-28T06:34:14;2.53;;;1.73;;
29378;SDS011;16362;47.202;15.258;2023-07-28T06:36:41;8.82;;;2.22;;
29378;SDS011;16362;47.202;15.258;2023-07-28T06:39:11;2.30;;;2.20;;
29378;SDS011;16362;47.202;15.258;2023-07-28T06:41:49;2.05;;;1.95;;
29378;SDS011;16362;47.202;15.258;2023-07-28T06:44:18;3.05;;;2.95;;
29378;SDS011;16362;47.202;15.258;2023-07-28T06:46:59;2.40;;;2.30;;
29378;SDS011;16362;47.202;15.258;2023-07-28T06:49:31;2.50;;;2.40;;
29378;SDS011;16362;47.202;15.258;2023-07-28T06:52:03;2.55;;;2.08;;
29378;SDS011;16362;47.202;15.258;2023-07-28T06:57:56;2.30;;;2.20;;
29378;SDS011;16362;47.202;15.258;2023-07-28T07:00:38;1.98;;;1.98;;
29378;SDS011;16362;47.202;15.258;2023-07-28T07:03:05;1.88;;;1.88;;
29378;SDS011;16362;47.202;15.258;2023-07-28T07:05:45;2.15;;;1.98;;
29378;SDS011;16362;47.202;15.258;2023-07-28T07:08:11;2.42;;;2.22;;
29378;SDS011;16362;47.202;15.258;2023-07-28T07:10:46;2.88;;;2.30;;
29378;SDS011;16362;47.202;15.258;2023-07-28T07:13:13;2.28;;;2.17;;
29378;SDS011;16362;47.202;15.258;2023-07-28T07:15:42;2.17;;;2.08;;
29378;SDS011;16362;47.202;15.258;2023-07-28T07:18:11;2.65;;;2.55;;
29378;SDS011;16362;47.202;15.258;2023-07-28T07:20:48;3.42;;;2.40;;
29378;SDS011;16362;47.202;15.258;2023-07-28T07:23:17;2.80;;;2.70;;
29378;SDS011;16362;47.202;15.258;2023-07-28T07:25:44;2.45;;;2.35;;
29378;SDS011;16362;47.202;15.258;2023-07-28T07:28:22;3.33;;;2.55;;
29378;SDS011;16362;47.202;15.258;2023-07-28T07:30:50;2.78;;;2.53;;
29378;SDS011;16362;47.202;15.258;2023-07-28T07:33:17;2.55;;;2.45;;
29378;SDS011;16362;47.202;15.258;2023-07-28T07:35:46;3.53;;;2.20;;
29378;SDS011;16362;47.202;15.258;2023-07-28T07:38:15;2.70;;;2.60;;
29378;SDS011;16362;47.202;15.258;2023-07-28T07:40:46;4.00;;;2.60;;
29378;SDS011;16362;47.202;15.258;2023-07-28T07:43:18;2.67;;;2.58;;
29378;SDS011;16362;47.202;15.258;2023-07-28T07:45:50;2.65;;;2.55;;
29378;SDS011;16362;47.202;15.258;2023-07-28T07:48:20;2.57;;;2.37;;
29378;SDS011;16362;47.202;15.258;2023-07-28T07:50:51;2.42;;;2.33;;
29378;SDS011;16362;47.202;15.258;2023-07-28T07:53:20;3.83;;;2.33;;
29378;SDS011;16362;47.202;15.258;2023-07-28T07:55:48;2.88;;;2.63;;
29378;SDS011;16362;47.202;15.258;2023-07-28T07:58:26;2.40;;;2.30;;
29378;SDS011;16362;47.202;15.258;2023-07-28T08:00:54;2.55;;;2.45;;
29378;SDS011;16362;47.202;15.258;2023-07-28T08:03:22;2.92;;;2.72;;
29378;SDS011;16362;47.202;15.258;2023-07-28T08:05:49;2.95;;;2.60;;
29378;SDS011;16362;47.202;15.258;2023-07-28T08:08:17;5.13;;;3.00;;
29378;SDS011;16362;47.202;15.258;2023-07-28T08:10:46;7.80;;;2.80;;
29378;SDS011;16362;47.202;15.258;2023-07-28T08:13:19;2.80;;;2.40;;
29378;SDS011;16362;47.202;15.258;2023-07-28T08:15:55;3.92;;;2.63;;
29378;SDS011;16362;47.202;15.258;2023-07-28T08:18:22;2.50;;;2.30;;
29378;SDS011;16362;47.202;15.258;2023-07-28T08:20:49;2.58;;;2.47;;
29378;SDS011;16362;47.202;15.258;2023-07-28T08:23:18;2.42;;;2.33;;
29378;SDS011;16362;47.202;15.258;2023-07-28T08:25:52;4.22;;;2.60;;
29378;SDS011;16362;47.202;15.258;2023-07-28T08:28:23;3.72;;;2.60;;
29378;SDS011;16362;47.202;15.258;2023-07-28T08:30:59;8.45;;;2.90;;
29378;SDS011;16362;47.202;15.258;2023-07-28T08:33:27;2.97;;;2.38;;
29378;SDS011;16362;47.202;15.258;2023-07-28T08:35:55;2.38;;;2.28;;
29378;SDS011;16362;47.202;15.258;2023-07-28T08:38:22;2.75;;;2.63;;
29378;SDS011;16362;47.202;15.258;2023-07-28T08:40:49;2.53;;;2.40;;
29378;SDS011;16362;47.202;15.258;2023-07-28T08:43:17;2.83;;;2.72;;
29378;SDS011;16362;47.202;15.258;2023-07-28T08:45:48;4.53;;;2.85;;
29378;SDS011;16362;47.202;15.258;2023-07-28T08:48:16;4.60;;;2.42;;
29378;SDS011;16362;47.202;15.258;2023-07-28T08:50:44;2.83;;;2.58;;
29378;SDS011;16362;47.202;15.258;2023-07-28T08:53:11;2.90;;;2.80;;
29378;SDS011;16362;47.202;15.258;2023-07-28T08:55:37;4.78;;;2.70;;
29378;SDS011;16362;47.202;15.258;2023-07-28T08:58:23;3.15;;;2.70;;
29378;SDS011;16362;47.202;15.258;2023-07-28T09:00:52;2.85;;;2.70;;
29378;SDS011;16362;47.202;15.258;2023-07-28T09:03:20;5.25;;;2.60;;
29378;SDS011;16362;47.202;15.258;2023-07-28T09:05:48;2.90;;;2.70;;
29378;SDS011;16362;47.202;15.258;2023-07-28T09:08:17;2.88;;;2.53;;
29378;SDS011;16362;47.202;15.258;2023-07-28T09:10:48;4.32;;;2.92;;
29378;SDS011;16362;47.202;15.258;2023-07-28T09:13:16;4.32;;;2.65;;
29378;SDS011;16362;47.202;15.258;2023-07-28T09:15:47;5.40;;;2.47;;
29378;SDS011;16362;47.202;15.258;2023-07-28T09:18:16;3.03;;;2.75;;
29378;SDS011;16362;47.202;15.258;2023-07-28T09:20:44;3.53;;;2.97;;
29378;SDS011;16362;47.202;15.258;2023-07-28T09:23:13;2.50;;;2.40;;
29378;SDS011;16362;47.202;15.258;2023-07-28T09:25:41;2.80;;;2.70;;
29378;SDS011;16362;47.202;15.258;2023-07-28T09:28:10;5.38;;;2.45;;
29378;SDS011;16362;47.202;15.258;2023-07-28T09:30:45;5.32;;;2.55;;
29378;SDS011;16362;47.202;15.258;2023-07-28T09:33:50;5.80;;;2.50;;
29378;SDS011;16362;47.202;15.258;2023-07-28T09:36:14;2.65;;;2.55;;
29378;SDS011;16362;47.202;15.258;2023-07-28T09:38:47;2.85;;;2.75;;
29378;SDS011;16362;47.202;15.258;2023-07-28T09:41:17;2.75;;;2.55;;
29378;SDS011;16362;47.202;15.258;2023-07-28T09:43:47;2.97;;;2.78;;
29378;SDS011;16362;47.202;15.258;2023-07-28T09:46:16;2.80;;;2.70;;
29378;SDS011;16362;47.202;15.258;2023-07-28T09:48:46;2.88;;;2.78;;
29378;SDS011;16362;47.202;15.258;2023-07-28T09:51:19;2.53;;;2.30;;
29378;SDS011;16362;47.202;15.258;2023-07-28T09:53:58;2.78;;;2.58;;
29378;SDS011;16362;47.202;15.258;2023-07-28T09:56:30;3.08;;;2.88;;
29378;SDS011;16362;47.202;15.258;2023-07-28T09:58:58;3.42;;;2.80;;
29378;SDS011;16362;47.202;15.258;2023-07-28T10:01:27;4.60;;;2.58;;
29378;SDS011;16362;47.202;15.258;2023-07-28T10:03:55;2.85;;;2.75;;
29378;SDS011;16362;47.202;15.258;2023-07-28T10:06:22;2.67;;;2.58;;
29378;SDS011;16362;47.202;15.258;2023-07-28T10:08:49;4.32;;;2.60;;
29378;SDS011;16362;47.202;15.258;2023-07-28T10:11:16;2.92;;;2.75;;
29378;SDS011;16362;47.202;15.258;2023-07-28T10:13:46;2.35;;;2.30;;
29378;SDS011;16362;47.202;15.258;2023-07-28T10:16:16;2.65;;;2.55;;
29378;SDS011;16362;47.202;15.258;2023-07-28T10:18:53;2.70;;;2.60;;
29378;SDS011;16362;47.202;15.258;2023-07-28T10:21:22;2.83;;;2.60;;
29378;SDS011;16362;47.202;15.258;2023-07-28T10:23:54;3.05;;;2.65;;
29378;SDS011;16362;47.202;15.258;2023-07-28T10:26:35;2.90;;;2.70;;
29378;SDS011;16362;47.202;15.258;2023-07-28T10:29:09;2.35;;;2.25;;
29378;SDS011;16362;47.202;15.258;2023-07-28T10:31:53;4.53;;;2.45;;
29378;SDS011;16362;47.202;15.258;2023-07-28T10:34:22;2.70;;;2.40;;
29378;SDS011;16362;47.202;15.258;2023-07-28T10:36:58;4.53;;;2.38;;
29378;SDS011;16362;47.202;15.258;2023-07-28T10:39:26;2.78;;;2.67;;
29378;SDS011;16362;47.202;15.258;2023-07-28T10:44:36;3.13;;;2.80;;
29378;SDS011;16362;47.202;15.258;2023-07-28T10:47:07;2.58;;;2.38;;
29378;SDS011;16362;47.202;15.258;2023-07-28T10:49:36;2.60;;;2.50;;
29378;SDS011;16362;47.202;15.258;2023-07-28T10:52:03;2.60;;;2.40;;
29378;SDS011;16362;47.202;15.258;2023-07-28T10:54:31;5.82;;;2.42;;
29378;SDS011;16362;47.202;15.258;2023-07-28T10:57:01;2.90;;;2.80;;
29378;SDS011;16362;47.202;15.258;2023-07-28T10:59:32;2.67;;;2.58;;
29378;SDS011;16362;47.202;15.258;2023-07-28T11:02:02;3.17;;;2.88;;
29378;SDS011;16362;47.202;15.258;2023-07-28T11:04:29;2.90;;;2.80;;
29378;SDS011;16362;47.202;15.258;2023-07-28T11:06:55;2.80;;;2.60;;
29378;SDS011;16362;47.202;15.258;2023-07-28T11:09:24;2.80;;;2.60;;
29378;SDS011;16362;47.202;15.258;2023-07-28T11:11:51;2.97;;;2.88;;
29378;SDS011;16362;47.202;15.258;2023-07-28T11:14:18;2.78;;;2.53;;
29378;SDS011;16362;47.202;15.258;2023-07-28T11:16:48;2.35;;;2.25;;
29378;SDS011;16362;47.202;15.258;2023-07-28T11:19:17;2.22;;;2.13;;
29378;SDS011;16362;47.202;15.258;2023-07-28T11:21:51;2.38;;;2.28;;
29378;SDS011;16362;47.202;15.258;2023-07-28T11:24:20;3.78;;;2.40;;
29378;SDS011;16362;47.202;15.258;2023-07-28T11:26:50;2.75;;;2.65;;
29378;SDS011;16362;47.202;15.258;2023-07-28T11:29:18;2.80;;;2.70;;
29378;SDS011;16362;47.202;15.258;2023-07-28T11:31:47;2.75;;;2.65;;
29378;SDS011;16362;47.202;15.258;2023-07-28T11:34:18;5.32;;;2.38;;
29378;SDS011;16362;47.202;15.258;2023-07-28T11:36:45;2.75;;;2.55;;
29378;SDS011;16362;47.202;15.258;2023-07-28T11:39:14;2.85;;;2.75;;
29378;SDS011;16362;47.202;15.258;2023-07-28T11:41:41;2.70;;;2.60;;
29378;SDS011;16362;47.202;15.258;2023-07-28T11:44:10;3.08;;;2.72;;
29378;SDS011;16362;47.202;15.258;2023-07-28T11:46:41;2.70;;;2.60;;
29378;SDS011;16362;47.202;15.258;2023-07-28T11:49:19;3.08;;;2.63;;
29378;SDS011;16362;47.202;15.258;2023-07-28T11:51:50;4.13;;;2.95;;
29378;SDS011;16362;47.202;15.258;2023-07-28T11:54:20;2.90;;;2.70;;
29378;SDS011;16362;47.202;15.258;2023-07-28T11:56:49;3.03;;;2.60;;
29378;SDS011;16362;47.202;15.258;2023-07-28T11:59:20;3.22;;;2.88;;
29378;SDS011;16362;47.202;15.258;2023-07-28T12:01:56;3.20;;;2.80;;
29378;SDS011;16362;47.202;15.258;2023-07-28T12:04:27;3.90;;;2.70;;
29378;SDS011;16362;47.202;15.258;2023-07-28T12:07:27;2.50;;;2.40;;
29378;SDS011;16362;47.202;15.258;2023-07-28T12:09:53;2.95;;;2.85;;
29378;SDS011;16362;47.202;15.258;2023-07-28T12:12:30;2.75;;;2.65;;
29378;SDS011;16362;47.202;15.258;2023-07-28T12:15:17;2.53;;;2.42;;
29378;SDS011;16362;47.202;15.258;2023-07-28T12:18:15;3.40;;;2.63;;
29378;SDS011;16362;47.202;15.258;2023-07-28T12:20:47;4.72;;;2.65;;
29378;SDS011;16362;47.202;15.258;2023-07-28T12:23:19;2.70;;;2.60;;
29378;SDS011;16362;47.202;15.258;2023-07-28T12:25:50;2.77;;;2.60;;
29378;SDS011;16362;47.202;15.258;2023-07-28T12:28:22;3.75;;;2.58;;
29378;SDS011;16362;47.202;15.258;2023-07-28T12:30:49;2.60;;;2.50;;
29378;SDS011;16362;47.202;15.258;2023-07-28T12:33:19;2.70;;;2.60;;
29378;SDS011;16362;47.202;15.258;2023-07-28T12:35:48;3.38;;;2.80;;
29378;SDS011;16362;47.202;15.258;2023-07-28T12:38:16;2.13;;;2.03;;
29378;SDS011;16362;47.202;15.258;2023-07-28T12:40:47;2.42;;;2.33;;
29378;SDS011;16362;47.202;15.258;2023-07-28T12:43:20;2.60;;;2.40;;
29378;SDS011;16362;47.202;15.258;2023-07-28T12:45:50;2.15;;;2.05;;
29378;SDS011;16362;47.202;15.258;2023-07-28T12:48:19;2.40;;;2.30;;
29378;SDS011;16362;47.202;15.258;2023-07-28T12:50:47;2.40;;;2.30;;
29378;SDS011;16362;47.202;15.258;2023-07-28T12:53:15;2.30;;;2.10;;
29378;SDS011;16362;47.202;15.258;2023-07-28T12:55:50;2.22;;;2.13;;
29378;SDS011;16362;47.202;15.258;2023-07-28T12:58:21;2.47;;;2.38;;
29378;SDS011;16362;47.202;15.258;2023-07-28T13:00:51;2.20;;;2.10;;
29378;SDS011;16362;47.202;15.258;2023-07-28T13:03:21;3.13;;;2.30;;
29378;SDS011;16362;47.202;15.258;2023-07-28T13:05:48;2.78;;;2.33;;
29378;SDS011;16362;47.202;15.258;2023-07-28T13:08:15;3.10;;;2.15;;
29378;SDS011;16362;47.202;15.258;2023-07-28T13:10:44;2.05;;;2.05;;
29378;SDS011;16362;47.202;15.258;2023-07-28T13:13:13;2.58;;;2.25;;
29378;SDS011;16362;47.202;15.258;2023-07-28T13:15:40;3.25;;;2.10;;
29378;SDS011;16362;47.202;15.258;2023-07-28T13:18:08;3.55;;;2.10;;
29378;SDS011;16362;47.202;15.258;2023-07-28T13:20:35;2.22;;;2.13;;
29378;SDS011;16362;47.202;15.258;2023-07-28T13:23:02;2.63;;;2.53;;
29378;SDS011;16362;47.202;15.258;2023-07-28T13:25:30;4.95;;;2.70;;
29378;SDS011;16362;47.202;15.258;2023-07-28T13:27:57;2.50;;;2.40;;
29378;SDS011;16362;47.202;15.258;2023-07-28T13:30:25;2.65;;;2.55;;
29378;SDS011;16362;47.202;15.258;2023-07-28T13:32:57;2.60;;;2.50;;
29378;SDS011;16362;47.202;15.258;2023-07-28T13:35:25;2.75;;;2.55;;
29378;SDS011;16362;47.202;15.258;2023-07-28T13:37:51;2.97;;;2.78;;
29378;SDS011;16362;47.202;15.258;2023-07-28T13:40:25;2.70;;;2.60;;
29378;SDS011;16362;47.202;15.258;2023-07-28T13:42:59;2.63;;;2.47;;
29378;SDS011;16362;47.202;15.258;2023-07-28T13:45:50;2.97;;;2.42;;
29378;SDS011;16362;47.202;15.258;2023-07-28T13:54:47;3.97;;;3.55;;
29378;SDS011;16362;47.202;15.258;2023-07-28T13:57:33;2.40;;;2.30;;
29378;SDS011;16362;47.202;15.258;2023-07-28T14:15:54;3.03;;;2.85;;
29378;SDS011;16362;47.202;15.258;2023-07-28T14:18:22;7.25;;;6.60;;
29378;SDS011;16362;47.202;15.258;2023-07-28T14:20:49;5.43;;;5.22;;
29378;SDS011;16362;47.202;15.258;2023-07-28T14:23:26;3.80;;;3.60;;
29378;SDS011;16362;47.202;15.258;2023-07-28T14:25:57;3.08;;;2.90;;
29378;SDS011;16362;47.202;15.258;2023-07-28T14:28:25;2.47;;;2.38;;
29378;SDS011;16362;47.202;15.258;2023-07-28T14:31:07;2.80;;;2.60;;
29378;SDS011;16362;47.202;15.258;2023-07-28T14:39:24;9.77;;;8.90;;
29378;SDS011;16362;47.202;15.258;2023-07-28T14:41:53;2.63;;;2.50;;
29378;SDS011;16362;47.202;15.258;2023-07-28T14:44:35;8.43;;;7.72;;
29378;SDS011;16362;47.202;15.258;2023-07-28T14:47:03;2.88;;;2.78;;
29378;SDS011;16362;47.202;15.258;2023-07-28T14:49:32;2.85;;;2.30;;
29378;SDS011;16362;47.202;15.258;2023-07-28T14:52:04;6.88;;;3.17;;
29378;SDS011;16362;47.202;15.258;2023-07-28T14:54:35;2.40;;;2.30;;
29378;SDS011;16362;47.202;15.258;2023-07-28T15:00:09;12.30;;;7.55;;
29378;SDS011;16362;47.202;15.258;2023-07-28T15:02:36;17.35;;;10.30;;
29378;SDS011;16362;47.202;15.258;2023-07-28T15:05:11;24.00;;;15.55;;
29378;SDS011;16362;47.202;15.258;2023-07-28T15:07:41;87.20;;;47.30;;
29378;SDS011;16362;47.202;15.258;2023-07-28T15:10:12;52.83;;;28.45;;
29378;SDS011;16362;47.202;15.258;2023-07-28T15:12:47;14.15;;;9.48;;
29378;SDS011;16362;47.202;15.258;2023-07-28T15:15:20;29.73;;;22.02;;
29378;SDS011;16362;47.202;15.258;2023-07-28T15:17:59;114.65;;;71.68;;
29378;SDS011;16362;47.202;15.258;2023-07-28T15:20:32;140.00;;;87.28;;
29378;SDS011;16362;47.202;15.258;2023-07-28T15:23:13;98.53;;;60.20;;
29378;SDS011;16362;47.202;15.258;2023-07-28T15:25:47;100.57;;;64.75;;
29378;SDS011;16362;47.202;15.258;2023-07-28T15:28:30;86.72;;;62.03;;
29378;SDS011;16362;47.202;15.258;2023-07-28T15:31:04;26.85;;;21.52;;
29378;SDS011;16362;47.202;15.258;2023-07-28T15:33:46;12.27;;;11.07;;
29378;SDS011;16362;47.202;15.258;2023-07-28T15:39:11;10.70;;;8.73;;
29378;SDS011;16362;47.202;15.258;2023-07-28T15:41:46;8.85;;;8.23;;
29378;SDS011;16362;47.202;15.258;2023-07-28T15:46:50;248.95;;;162.40;;